sensor_id;sensor_type;location;lat;lon;timestamp;temperature;humidity
12426;DHT22;6277;49.824;9.562;2022-12-16T00:01:04;2.90;63.20
12426;DHT22;6277;49.824;9.562;2022-12-16T00:03:30;2.90;63.20
12426;DHT22;6277;49.824;9.562;2022-12-16T00:05:55;2.90;63.10
12426;DHT22;6277;49.824;9.562;2022-12-16T00:08:21;2.90;63.10
12426;DHT22;6277;49.824;9.562;2022-12-16T00:10:46;2.80;63.00
12426;DHT22;6277;49.824;9.562;2022-12-16T00:13:18;2.80;63.00
12426;DHT22;6277;49.824;9.562;2022-12-16T00:15:43;2.80;63.00
12426;DHT22;6277;49.824;9.562;2022-12-16T00:18:11;2.80;62.90
12426;DHT22;6277;49.824;9.562;2022-12-16T00:20:36;2.80;62.90
12426;DHT22;6277;49.824;9.562;2022-12-16T00:23:02;2.80;62.90
12426;DHT22;6277;49.824;9.562;2022-12-16T00:25:27;2.80;63.00
12426;DHT22;6277;49.824;9.562;2022-12-16T00:27:53;2.80;62.90
12426;DHT22;6277;49.824;9.562;2022-12-16T00:30:18;2.80;62.90
12426;DHT22;6277;49.824;9.562;2022-12-16T00:32:44;2.80;62.90
12426;DHT22;6277;49.824;9.562;2022-12-16T00:35:09;2.80;62.80
12426;DHT22;6277;49.824;9.562;2022-12-16T00:37:35;2.80;62.70
12426;DHT22;6277;49.824;9.562;2022-12-16T00:40:00;2.80;62.70
12426;DHT22;6277;49.824;9.562;2022-12-16T00:42:26;2.80;63.40
12426;DHT22;6277;49.824;9.562;2022-12-16T00:44:51;2.80;62.70
12426;DHT22;6277;49.824;9.562;2022-12-16T00:47:17;2.80;62.70
12426;DHT22;6277;49.824;9.562;2022-12-16T00:49:42;2.80;62.60
12426;DHT22;6277;49.824;9.562;2022-12-16T00:52:08;2.80;62.60
12426;DHT22;6277;49.824;9.562;2022-12-16T00:54:33;2.80;62.60
12426;DHT22;6277;49.824;9.562;2022-12-16T00:56:59;2.80;62.50
12426;DHT22;6277;49.824;9.562;2022-12-16T00:59:24;2.80;62.50
12426;DHT22;6277;49.824;9.562;2022-12-16T01:01:50;2.80;62.50
12426;DHT22;6277;49.824;9.562;2022-12-16T01:04:15;2.80;62.50
12426;DHT22;6277;49.824;9.562;2022-12-16T01:06:41;2.80;62.40
12426;DHT22;6277;49.824;9.562;2022-12-16T01:09:06;2.80;62.30
12426;DHT22;6277;49.824;9.562;2022-12-16T01:11:32;2.80;62.30
12426;DHT22;6277;49.824;9.562;2022-12-16T01:13:58;2.80;62.30
12426;DHT22;6277;49.824;9.562;2022-12-16T01:16:24;2.80;62.30
12426;DHT22;6277;49.824;9.562;2022-12-16T01:18:49;2.80;62.20
12426;DHT22;6277;49.824;9.562;2022-12-16T01:21:15;2.80;62.10
12426;DHT22;6277;49.824;9.562;2022-12-16T01:23:41;2.90;62.20
12426;DHT22;6277;49.824;9.562;2022-12-16T01:26:06;2.90;62.20
12426;DHT22;6277;49.824;9.562;2022-12-16T01:28:32;2.90;62.10
12426;DHT22;6277;49.824;9.562;2022-12-16T01:30:59;2.90;62.00
12426;DHT22;6277;49.824;9.562;2022-12-16T01:33:31;2.90;62.00
12426;DHT22;6277;49.824;9.562;2022-12-16T01:36:06;2.90;61.80
12426;DHT22;6277;49.824;9.562;2022-12-16T01:38:33;2.90;61.60
12426;DHT22;6277;49.824;9.562;2022-12-16T01:40:59;2.90;61.90
12426;DHT22;6277;49.824;9.562;2022-12-16T01:43:30;3.00;61.90
12426;DHT22;6277;49.824;9.562;2022-12-16T01:46:21;3.00;61.70
12426;DHT22;6277;49.824;9.562;2022-12-16T01:49:00;3.00;61.30
12426;DHT22;6277;49.824;9.562;2022-12-16T01:51:32;3.00;61.40
12426;DHT22;6277;49.824;9.562;2022-12-16T01:57:11;3.00;61.40
12426;DHT22;6277;49.824;9.562;2022-12-16T01:59:40;3.00;61.50
12426;DHT22;6277;49.824;9.562;2022-12-16T02:02:08;3.00;61.50
12426;DHT22;6277;49.824;9.562;2022-12-16T02:04:34;3.00;61.50
12426;DHT22;6277;49.824;9.562;2022-12-16T02:07:00;3.00;61.40
12426;DHT22;6277;49.824;9.562;2022-12-16T02:09:26;3.00;61.30
12426;DHT22;6277;49.824;9.562;2022-12-16T02:12:10;3.00;61.40
12426;DHT22;6277;49.824;9.562;2022-12-16T02:14:57;3.00;61.10
12426;DHT22;6277;49.824;9.562;2022-12-16T02:22:58;3.00;60.80
12426;DHT22;6277;49.824;9.562;2022-12-16T02:25:51;3.00;60.60
12426;DHT22;6277;49.824;9.562;2022-12-16T02:39:07;3.00;60.60
12426;DHT22;6277;49.824;9.562;2022-12-16T02:41:53;3.00;60.60
12426;DHT22;6277;49.824;9.562;2022-12-16T02:44:29;3.00;60.70
12426;DHT22;6277;49.824;9.562;2022-12-16T02:46:57;3.00;60.60
12426;DHT22;6277;49.824;9.562;2022-12-16T02:51:49;3.00;61.40
12426;DHT22;6277;49.824;9.562;2022-12-16T02:54:15;3.00;60.60
12426;DHT22;6277;49.824;9.562;2022-12-16T03:04:53;2.90;60.10
12426;DHT22;6277;49.824;9.562;2022-12-16T03:07:24;2.80;59.80
12426;DHT22;6277;49.824;9.562;2022-12-16T03:09:52;2.80;60.10
12426;DHT22;6277;49.824;9.562;2022-12-16T03:12:20;2.80;60.20
12426;DHT22;6277;49.824;9.562;2022-12-16T03:14:49;2.70;60.00
12426;DHT22;6277;49.824;9.562;2022-12-16T03:17:17;2.60;59.90
12426;DHT22;6277;49.824;9.562;2022-12-16T03:19:48;2.60;60.00
12426;DHT22;6277;49.824;9.562;2022-12-16T03:22:20;2.60;59.90
12426;DHT22;6277;49.824;9.562;2022-12-16T03:24:47;2.50;59.80
12426;DHT22;6277;49.824;9.562;2022-12-16T03:27:30;2.50;59.90
12426;DHT22;6277;49.824;9.562;2022-12-16T03:35:29;2.30;59.70
12426;DHT22;6277;49.824;9.562;2022-12-16T03:37:57;2.20;60.50
12426;DHT22;6277;49.824;9.562;2022-12-16T03:40:26;2.20;60.00
12426;DHT22;6277;49.824;9.562;2022-12-16T03:42:53;2.10;60.00
12426;DHT22;6277;49.824;9.562;2022-12-16T03:45:26;2.00;60.00
12426;DHT22;6277;49.824;9.562;2022-12-16T03:47:56;1.90;60.00
12426;DHT22;6277;49.824;9.562;2022-12-16T03:50:25;1.80;60.00
12426;DHT22;6277;49.824;9.562;2022-12-16T03:52:52;1.80;60.10
12426;DHT22;6277;49.824;9.562;2022-12-16T03:55:18;1.70;60.70
12426;DHT22;6277;49.824;9.562;2022-12-16T03:57:44;1.60;60.10
12426;DHT22;6277;49.824;9.562;2022-12-16T04:00:10;1.50;60.10
12426;DHT22;6277;49.824;9.562;2022-12-16T04:02:35;1.50;60.30
12426;DHT22;6277;49.824;9.562;2022-12-16T04:05:01;1.40;60.20
12426;DHT22;6277;49.824;9.562;2022-12-16T04:07:26;1.30;60.20
12426;DHT22;6277;49.824;9.562;2022-12-16T04:09:52;1.20;60.20
12426;DHT22;6277;49.824;9.562;2022-12-16T04:12:18;1.10;60.20
12426;DHT22;6277;49.824;9.562;2022-12-16T04:15:04;1.10;60.20
12426;DHT22;6277;49.824;9.562;2022-12-16T04:17:49;1.00;60.20
12426;DHT22;6277;49.824;9.562;2022-12-16T04:20:38;0.90;60.10
12426;DHT22;6277;49.824;9.562;2022-12-16T04:23:24;0.80;60.00
12426;DHT22;6277;49.824;9.562;2022-12-16T04:26:09;0.70;60.10
12426;DHT22;6277;49.824;9.562;2022-12-16T04:28:35;0.70;60.20
12426;DHT22;6277;49.824;9.562;2022-12-16T04:31:00;0.60;60.10
12426;DHT22;6277;49.824;9.562;2022-12-16T04:33:26;0.60;60.20
12426;DHT22;6277;49.824;9.562;2022-12-16T04:36:11;0.60;60.30
12426;DHT22;6277;49.824;9.562;2022-12-16T04:38:55;0.60;60.40
12426;DHT22;6277;49.824;9.562;2022-12-16T04:41:39;0.50;60.30
12426;DHT22;6277;49.824;9.562;2022-12-16T04:44:23;0.50;60.30
12426;DHT22;6277;49.824;9.562;2022-12-16T04:47:07;0.50;60.30
12426;DHT22;6277;49.824;9.562;2022-12-16T04:49:51;0.50;60.30
12426;DHT22;6277;49.824;9.562;2022-12-16T04:52:35;0.50;60.30
12426;DHT22;6277;49.824;9.562;2022-12-16T04:55:19;0.50;60.10
12426;DHT22;6277;49.824;9.562;2022-12-16T04:58:04;0.50;60.10
12426;DHT22;6277;49.824;9.562;2022-12-16T05:00:49;0.50;60.10
12426;DHT22;6277;49.824;9.562;2022-12-16T05:03:34;0.40;60.00
12426;DHT22;6277;49.824;9.562;2022-12-16T05:06:18;0.30;59.90
12426;DHT22;6277;49.824;9.562;2022-12-16T05:09:04;0.30;59.90
12426;DHT22;6277;49.824;9.562;2022-12-16T05:11:48;0.30;59.90
12426;DHT22;6277;49.824;9.562;2022-12-16T05:14:32;0.20;59.90
12426;DHT22;6277;49.824;9.562;2022-12-16T05:17:16;0.10;59.80
12426;DHT22;6277;49.824;9.562;2022-12-16T05:20:00;0.10;59.80
12426;DHT22;6277;49.824;9.562;2022-12-16T05:22:44;0.00;59.80
12426;DHT22;6277;49.824;9.562;2022-12-16T05:25:28;-0.10;59.80
12426;DHT22;6277;49.824;9.562;2022-12-16T05:28:12;-0.20;59.80
12426;DHT22;6277;49.824;9.562;2022-12-16T05:30:57;-0.30;59.80
12426;DHT22;6277;49.824;9.562;2022-12-16T05:33:41;-0.30;59.90
12426;DHT22;6277;49.824;9.562;2022-12-16T05:36:25;-0.40;59.90
12426;DHT22;6277;49.824;9.562;2022-12-16T05:39:09;-0.50;59.90
12426;DHT22;6277;49.824;9.562;2022-12-16T05:41:53;-0.60;59.90
12426;DHT22;6277;49.824;9.562;2022-12-16T05:44:38;-0.70;59.90
12426;DHT22;6277;49.824;9.562;2022-12-16T05:47:22;-0.80;59.90
12426;DHT22;6277;49.824;9.562;2022-12-16T05:50:06;-0.80;60.00
12426;DHT22;6277;49.824;9.562;2022-12-16T05:52:52;-0.90;60.00
12426;DHT22;6277;49.824;9.562;2022-12-16T05:55:36;-1.00;60.00
12426;DHT22;6277;49.824;9.562;2022-12-16T05:58:21;-1.10;60.00
12426;DHT22;6277;49.824;9.562;2022-12-16T06:01:05;-1.20;60.00
12426;DHT22;6277;49.824;9.562;2022-12-16T06:03:50;-1.30;60.00
12426;DHT22;6277;49.824;9.562;2022-12-16T06:06:34;-1.40;60.00
12426;DHT22;6277;49.824;9.562;2022-12-16T06:09:18;-1.40;60.10
12426;DHT22;6277;49.824;9.562;2022-12-16T06:12:02;-1.50;60.10
12426;DHT22;6277;49.824;9.562;2022-12-16T06:14:46;-1.60;60.10
12426;DHT22;6277;49.824;9.562;2022-12-16T06:17:30;-1.70;60.20
12426;DHT22;6277;49.824;9.562;2022-12-16T06:20:14;-1.80;60.20
12426;DHT22;6277;49.824;9.562;2022-12-16T06:22:58;-1.90;60.20
12426;DHT22;6277;49.824;9.562;2022-12-16T06:25:42;-1.90;60.40
12426;DHT22;6277;49.824;9.562;2022-12-16T06:28:26;-2.00;60.40
12426;DHT22;6277;49.824;9.562;2022-12-16T06:31:11;-2.10;60.40
12426;DHT22;6277;49.824;9.562;2022-12-16T06:33:55;-2.20;60.50
12426;DHT22;6277;49.824;9.562;2022-12-16T06:36:40;-2.20;60.60
12426;DHT22;6277;49.824;9.562;2022-12-16T06:39:24;-2.30;60.60
12426;DHT22;6277;49.824;9.562;2022-12-16T06:42:08;-2.30;60.70
12426;DHT22;6277;49.824;9.562;2022-12-16T06:44:52;-2.40;60.70
12426;DHT22;6277;49.824;9.562;2022-12-16T06:47:37;-2.40;60.80
12426;DHT22;6277;49.824;9.562;2022-12-16T06:50:22;-2.40;60.90
12426;DHT22;6277;49.824;9.562;2022-12-16T06:53:06;-2.40;61.10
12426;DHT22;6277;49.824;9.562;2022-12-16T06:55:50;-2.50;60.90
12426;DHT22;6277;49.824;9.562;2022-12-16T06:58:34;-2.50;60.90
12426;DHT22;6277;49.824;9.562;2022-12-16T07:01:18;-2.50;61.00
12426;DHT22;6277;49.824;9.562;2022-12-16T07:04:02;-2.60;61.00
12426;DHT22;6277;49.824;9.562;2022-12-16T07:06:46;-2.60;61.00
12426;DHT22;6277;49.824;9.562;2022-12-16T07:09:30;-2.70;60.90
12426;DHT22;6277;49.824;9.562;2022-12-16T07:12:14;-2.70;61.00
12426;DHT22;6277;49.824;9.562;2022-12-16T07:14:58;-2.80;61.00
12426;DHT22;6277;49.824;9.562;2022-12-16T07:17:43;-2.80;61.00
12426;DHT22;6277;49.824;9.562;2022-12-16T07:20:28;-2.80;61.10
12426;DHT22;6277;49.824;9.562;2022-12-16T07:23:13;-2.90;61.00
12426;DHT22;6277;49.824;9.562;2022-12-16T07:25:57;-2.90;61.20
12426;DHT22;6277;49.824;9.562;2022-12-16T07:28:41;-2.90;61.20
12426;DHT22;6277;49.824;9.562;2022-12-16T07:31:25;-2.90;61.30
12426;DHT22;6277;49.824;9.562;2022-12-16T07:34:09;-2.90;61.30
12426;DHT22;6277;49.824;9.562;2022-12-16T07:36:53;-3.00;61.30
12426;DHT22;6277;49.824;9.562;2022-12-16T07:39:37;-3.00;61.30
12426;DHT22;6277;49.824;9.562;2022-12-16T07:42:22;-3.00;61.40
12426;DHT22;6277;49.824;9.562;2022-12-16T07:45:06;-3.00;61.50
12426;DHT22;6277;49.824;9.562;2022-12-16T07:47:50;-3.00;61.50
12426;DHT22;6277;49.824;9.562;2022-12-16T07:50:36;-3.00;61.60
12426;DHT22;6277;49.824;9.562;2022-12-16T07:53:20;-3.00;61.70
12426;DHT22;6277;49.824;9.562;2022-12-16T07:56:05;-3.00;61.70
12426;DHT22;6277;49.824;9.562;2022-12-16T07:58:50;-3.00;61.70
12426;DHT22;6277;49.824;9.562;2022-12-16T08:01:34;-3.00;61.80
12426;DHT22;6277;49.824;9.562;2022-12-16T08:04:18;-3.00;61.90
12426;DHT22;6277;49.824;9.562;2022-12-16T08:07:02;-3.00;61.90
12426;DHT22;6277;49.824;9.562;2022-12-16T08:09:47;-3.00;62.00
12426;DHT22;6277;49.824;9.562;2022-12-16T08:12:31;-3.00;62.00
12426;DHT22;6277;49.824;9.562;2022-12-16T08:15:15;-2.90;62.10
12426;DHT22;6277;49.824;9.562;2022-12-16T08:17:59;-2.90;62.10
12426;DHT22;6277;49.824;9.562;2022-12-16T08:20:43;-2.80;62.20
12426;DHT22;6277;49.824;9.562;2022-12-16T08:23:27;-2.80;62.30
12426;DHT22;6277;49.824;9.562;2022-12-16T08:26:11;-2.70;62.40
12426;DHT22;6277;49.824;9.562;2022-12-16T08:28:55;-2.70;62.30
12426;DHT22;6277;49.824;9.562;2022-12-16T08:31:39;-2.60;62.40
12426;DHT22;6277;49.824;9.562;2022-12-16T08:34:23;-2.50;62.40
12426;DHT22;6277;49.824;9.562;2022-12-16T08:37:08;-2.50;62.50
12426;DHT22;6277;49.824;9.562;2022-12-16T08:39:52;-2.40;62.50
12426;DHT22;6277;49.824;9.562;2022-12-16T08:42:36;-2.30;63.20
12426;DHT22;6277;49.824;9.562;2022-12-16T08:45:20;-2.30;62.50
12426;DHT22;6277;49.824;9.562;2022-12-16T08:48:06;-2.20;62.60
12426;DHT22;6277;49.824;9.562;2022-12-16T08:50:50;-2.10;62.70
12426;DHT22;6277;49.824;9.562;2022-12-16T08:53:34;-2.00;62.70
12426;DHT22;6277;49.824;9.562;2022-12-16T08:56:18;-2.00;62.70
12426;DHT22;6277;49.824;9.562;2022-12-16T08:59:02;-1.90;62.80
12426;DHT22;6277;49.824;9.562;2022-12-16T09:01:46;-1.80;62.80
12426;DHT22;6277;49.824;9.562;2022-12-16T09:04:30;-1.70;62.90
12426;DHT22;6277;49.824;9.562;2022-12-16T09:07:14;-1.60;62.90
12426;DHT22;6277;49.824;9.562;2022-12-16T09:09:58;-1.60;62.80
12426;DHT22;6277;49.824;9.562;2022-12-16T09:12:42;-1.50;62.90
12426;DHT22;6277;49.824;9.562;2022-12-16T09:15:26;-1.40;62.90
12426;DHT22;6277;49.824;9.562;2022-12-16T09:18:10;-1.30;62.90
12426;DHT22;6277;49.824;9.562;2022-12-16T09:20:54;-1.30;62.80
12426;DHT22;6277;49.824;9.562;2022-12-16T09:23:38;-1.20;62.90
12426;DHT22;6277;49.824;9.562;2022-12-16T09:26:22;-1.10;62.90
12426;DHT22;6277;49.824;9.562;2022-12-16T09:29:06;-1.00;62.90
12426;DHT22;6277;49.824;9.562;2022-12-16T09:31:50;-1.00;63.50
12426;DHT22;6277;49.824;9.562;2022-12-16T09:34:35;-0.90;62.80
12426;DHT22;6277;49.824;9.562;2022-12-16T09:37:19;-0.80;62.80
12426;DHT22;6277;49.824;9.562;2022-12-16T09:40:03;-0.80;62.70
12426;DHT22;6277;49.824;9.562;2022-12-16T09:42:53;-0.70;62.70
12426;DHT22;6277;49.824;9.562;2022-12-16T09:45:57;-0.70;62.70
12426;DHT22;6277;49.824;9.562;2022-12-16T09:49:26;-0.60;62.70
12426;DHT22;6277;49.824;9.562;2022-12-16T09:52:15;-0.60;62.70
12426;DHT22;6277;49.824;9.562;2022-12-16T09:55:03;-0.50;62.70
12426;DHT22;6277;49.824;9.562;2022-12-16T09:57:48;-0.40;62.70
12426;DHT22;6277;49.824;9.562;2022-12-16T10:00:46;-0.40;62.70
12426;DHT22;6277;49.824;9.562;2022-12-16T10:03:38;-0.30;62.80
12426;DHT22;6277;49.824;9.562;2022-12-16T10:06:43;-0.20;62.80
12426;DHT22;6277;49.824;9.562;2022-12-16T10:16:16;0.20;62.90
12426;DHT22;6277;49.824;9.562;2022-12-16T10:22:14;0.40;62.90
12426;DHT22;6277;49.824;9.562;2022-12-16T10:25:14;0.50;63.00
12426;DHT22;6277;49.824;9.562;2022-12-16T10:28:18;0.60;63.00
12426;DHT22;6277;49.824;9.562;2022-12-16T10:31:10;0.70;63.00
12426;DHT22;6277;49.824;9.562;2022-12-16T10:33:55;0.90;63.20
12426;DHT22;6277;49.824;9.562;2022-12-16T10:36:40;1.00;63.10
12426;DHT22;6277;49.824;9.562;2022-12-16T10:39:35;1.10;63.00
12426;DHT22;6277;49.824;9.562;2022-12-16T10:42:30;1.30;62.90
12426;DHT22;6277;49.824;9.562;2022-12-16T10:45:22;1.40;62.90
12426;DHT22;6277;49.824;9.562;2022-12-16T10:48:09;1.50;62.90
12426;DHT22;6277;49.824;9.562;2022-12-16T10:50:54;1.60;62.90
12426;DHT22;6277;49.824;9.562;2022-12-16T10:53:49;1.70;62.80
12426;DHT22;6277;49.824;9.562;2022-12-16T10:56:49;1.80;62.70
12426;DHT22;6277;49.824;9.562;2022-12-16T10:59:37;1.90;62.60
12426;DHT22;6277;49.824;9.562;2022-12-16T11:02:28;1.90;62.50
12426;DHT22;6277;49.824;9.562;2022-12-16T11:08:28;2.00;62.30
12426;DHT22;6277;49.824;9.562;2022-12-16T11:11:28;2.10;62.40
12426;DHT22;6277;49.824;9.562;2022-12-16T11:14:30;2.20;62.30
12426;DHT22;6277;49.824;9.562;2022-12-16T11:17:24;2.20;62.30
12426;DHT22;6277;49.824;9.562;2022-12-16T11:20:34;2.30;62.20
12426;DHT22;6277;49.824;9.562;2022-12-16T11:23:21;2.40;62.10
12426;DHT22;6277;49.824;9.562;2022-12-16T11:26:18;2.50;62.30
12426;DHT22;6277;49.824;9.562;2022-12-16T11:29:14;2.50;62.10
12426;DHT22;6277;49.824;9.562;2022-12-16T11:32:07;2.60;62.10
12426;DHT22;6277;49.824;9.562;2022-12-16T11:34:58;2.70;62.80
12426;DHT22;6277;49.824;9.562;2022-12-16T11:37:43;2.70;62.20
12426;DHT22;6277;49.824;9.562;2022-12-16T11:40:29;2.80;62.30
12426;DHT22;6277;49.824;9.562;2022-12-16T11:43:16;2.90;62.20
12426;DHT22;6277;49.824;9.562;2022-12-16T11:46:10;3.00;62.10
12426;DHT22;6277;49.824;9.562;2022-12-16T11:49:02;3.10;61.90
12426;DHT22;6277;49.824;9.562;2022-12-16T11:52:02;3.20;61.80
12426;DHT22;6277;49.824;9.562;2022-12-16T11:54:58;3.30;61.60
12426;DHT22;6277;49.824;9.562;2022-12-16T11:57:52;3.40;61.60
12426;DHT22;6277;49.824;9.562;2022-12-16T12:00:43;3.50;61.70
12426;DHT22;6277;49.824;9.562;2022-12-16T12:03:37;3.60;61.60
12426;DHT22;6277;49.824;9.562;2022-12-16T12:06:52;3.70;61.50
12426;DHT22;6277;49.824;9.562;2022-12-16T12:09:46;3.80;61.20
12426;DHT22;6277;49.824;9.562;2022-12-16T12:15:35;3.90;61.00
12426;DHT22;6277;49.824;9.562;2022-12-16T12:18:42;4.00;60.90
12426;DHT22;6277;49.824;9.562;2022-12-16T12:21:38;4.10;60.60
12426;DHT22;6277;49.824;9.562;2022-12-16T12:24:40;4.10;60.90
12426;DHT22;6277;49.824;9.562;2022-12-16T12:28:30;4.20;60.40
12426;DHT22;6277;49.824;9.562;2022-12-16T12:31:25;4.30;60.20
12426;DHT22;6277;49.824;9.562;2022-12-16T12:34:20;4.30;60.30
12426;DHT22;6277;49.824;9.562;2022-12-16T12:43:35;4.50;59.90
12426;DHT22;6277;49.824;9.562;2022-12-16T12:46:56;4.60;60.10
12426;DHT22;6277;49.824;9.562;2022-12-16T12:49:56;4.60;59.70
12426;DHT22;6277;49.824;9.562;2022-12-16T12:59:08;4.70;60.00
12426;DHT22;6277;49.824;9.562;2022-12-16T13:01:55;4.80;60.10
12426;DHT22;6277;49.824;9.562;2022-12-16T13:04:40;4.90;60.20
12426;DHT22;6277;49.824;9.562;2022-12-16T13:07:25;4.90;60.00
12426;DHT22;6277;49.824;9.562;2022-12-16T13:10:29;5.00;60.00
12426;DHT22;6277;49.824;9.562;2022-12-16T13:16:03;5.00;59.80
12426;DHT22;6277;49.824;9.562;2022-12-16T13:18:48;5.10;59.60
12426;DHT22;6277;49.824;9.562;2022-12-16T13:21:51;5.20;59.80
12426;DHT22;6277;49.824;9.562;2022-12-16T13:24:49;5.30;59.60
12426;DHT22;6277;49.824;9.562;2022-12-16T13:27:51;5.40;59.80
12426;DHT22;6277;49.824;9.562;2022-12-16T13:30:37;5.50;59.20
12426;DHT22;6277;49.824;9.562;2022-12-16T13:33:28;5.50;59.70
12426;DHT22;6277;49.824;9.562;2022-12-16T13:36:15;5.50;59.40
12426;DHT22;6277;49.824;9.562;2022-12-16T13:39:07;5.60;59.40
12426;DHT22;6277;49.824;9.562;2022-12-16T13:42:03;5.70;59.30
12426;DHT22;6277;49.824;9.562;2022-12-16T13:50:42;5.90;59.60
12426;DHT22;6277;49.824;9.562;2022-12-16T13:53:30;6.00;59.40
12426;DHT22;6277;49.824;9.562;2022-12-16T13:56:19;6.00;59.40
12426;DHT22;6277;49.824;9.562;2022-12-16T13:59:19;6.00;59.20
12426;DHT22;6277;49.824;9.562;2022-12-16T14:02:24;6.00;59.10
12426;DHT22;6277;49.824;9.562;2022-12-16T14:05:26;6.00;58.80
12426;DHT22;6277;49.824;9.562;2022-12-16T14:08:20;6.10;58.90
12426;DHT22;6277;49.824;9.562;2022-12-16T14:11:13;6.10;59.00
12426;DHT22;6277;49.824;9.562;2022-12-16T14:14:08;6.10;59.30
12426;DHT22;6277;49.824;9.562;2022-12-16T14:17:16;6.10;59.20
12426;DHT22;6277;49.824;9.562;2022-12-16T14:26:12;6.00;59.00
12426;DHT22;6277;49.824;9.562;2022-12-16T14:28:57;6.00;59.20
12426;DHT22;6277;49.824;9.562;2022-12-16T14:31:43;5.90;59.20
12426;DHT22;6277;49.824;9.562;2022-12-16T14:34:29;5.90;59.20
12426;DHT22;6277;49.824;9.562;2022-12-16T14:37:15;5.80;59.10
12426;DHT22;6277;49.824;9.562;2022-12-16T14:39:59;5.80;59.20
12426;DHT22;6277;49.824;9.562;2022-12-16T14:42:44;5.70;59.10
12426;DHT22;6277;49.824;9.562;2022-12-16T14:45:33;5.70;59.10
12426;DHT22;6277;49.824;9.562;2022-12-16T14:48:25;5.70;59.00
12426;DHT22;6277;49.824;9.562;2022-12-16T14:51:29;5.60;58.80
12426;DHT22;6277;49.824;9.562;2022-12-16T14:54:26;5.50;58.70
12426;DHT22;6277;49.824;9.562;2022-12-16T14:57:19;5.50;58.70
12426;DHT22;6277;49.824;9.562;2022-12-16T15:02:54;5.30;58.50
12426;DHT22;6277;49.824;9.562;2022-12-16T15:05:40;5.20;58.50
12426;DHT22;6277;49.824;9.562;2022-12-16T15:08:25;5.00;58.30
12426;DHT22;6277;49.824;9.562;2022-12-16T15:11:12;4.90;58.30
12426;DHT22;6277;49.824;9.562;2022-12-16T15:14:00;4.70;58.30
12426;DHT22;6277;49.824;9.562;2022-12-16T15:16:46;4.50;58.20
12426;DHT22;6277;49.824;9.562;2022-12-16T15:19:42;4.30;58.20
12426;DHT22;6277;49.824;9.562;2022-12-16T15:22:27;4.20;58.10
12426;DHT22;6277;49.824;9.562;2022-12-16T15:25:20;4.00;58.30
12426;DHT22;6277;49.824;9.562;2022-12-16T15:28:18;3.80;58.20
12426;DHT22;6277;49.824;9.562;2022-12-16T15:31:12;3.60;58.30
12426;DHT22;6277;49.824;9.562;2022-12-16T15:37:13;3.30;58.30
12426;DHT22;6277;49.824;9.562;2022-12-16T15:39:57;3.20;58.60
12426;DHT22;6277;49.824;9.562;2022-12-16T15:42:42;3.10;58.60
12426;DHT22;6277;49.824;9.562;2022-12-16T15:45:27;3.00;58.70
12426;DHT22;6277;49.824;9.562;2022-12-16T15:48:28;3.00;58.90
12426;DHT22;6277;49.824;9.562;2022-12-16T15:57:00;2.90;59.00
12426;DHT22;6277;49.824;9.562;2022-12-16T15:59:58;2.90;59.10
12426;DHT22;6277;49.824;9.562;2022-12-16T16:02:47;2.90;59.10
12426;DHT22;6277;49.824;9.562;2022-12-16T16:05:32;2.80;59.10
12426;DHT22;6277;49.824;9.562;2022-12-16T16:08:18;2.80;59.20
12426;DHT22;6277;49.824;9.562;2022-12-16T16:11:02;2.80;59.20
12426;DHT22;6277;49.824;9.562;2022-12-16T16:13:46;2.80;59.30
12426;DHT22;6277;49.824;9.562;2022-12-16T16:16:30;2.80;59.30
12426;DHT22;6277;49.824;9.562;2022-12-16T16:19:25;2.80;59.40
12426;DHT22;6277;49.824;9.562;2022-12-16T16:22:17;2.80;59.40
12426;DHT22;6277;49.824;9.562;2022-12-16T16:25:01;2.80;59.50
12426;DHT22;6277;49.824;9.562;2022-12-16T16:27:46;2.80;59.50
12426;DHT22;6277;49.824;9.562;2022-12-16T16:30:30;2.80;59.60
12426;DHT22;6277;49.824;9.562;2022-12-16T16:33:14;2.80;59.60
12426;DHT22;6277;49.824;9.562;2022-12-16T16:35:58;2.80;59.60
12426;DHT22;6277;49.824;9.562;2022-12-16T16:38:42;2.70;59.60
12426;DHT22;6277;49.824;9.562;2022-12-16T16:41:26;2.80;59.70
12426;DHT22;6277;49.824;9.562;2022-12-16T16:44:10;2.80;59.80
12426;DHT22;6277;49.824;9.562;2022-12-16T16:46:55;2.80;59.80
12426;DHT22;6277;49.824;9.562;2022-12-16T16:49:43;2.80;59.90
12426;DHT22;6277;49.824;9.562;2022-12-16T16:52:29;2.80;59.80
12426;DHT22;6277;49.824;9.562;2022-12-16T16:55:18;2.90;59.90
12426;DHT22;6277;49.824;9.562;2022-12-16T16:58:27;2.90;59.80
12426;DHT22;6277;49.824;9.562;2022-12-16T17:01:13;2.90;59.80
12426;DHT22;6277;49.824;9.562;2022-12-16T17:03:58;3.00;59.90
12426;DHT22;6277;49.824;9.562;2022-12-16T17:06:42;3.00;59.90
12426;DHT22;6277;49.824;9.562;2022-12-16T17:09:26;3.00;59.80
12426;DHT22;6277;49.824;9.562;2022-12-16T17:15:16;3.00;59.80
12426;DHT22;6277;49.824;9.562;2022-12-16T17:18:01;3.00;59.80
12426;DHT22;6277;49.824;9.562;2022-12-16T17:20:45;3.10;59.80
12426;DHT22;6277;49.824;9.562;2022-12-16T17:23:29;3.00;59.70
12426;DHT22;6277;49.824;9.562;2022-12-16T17:26:13;3.10;59.70
12426;DHT22;6277;49.824;9.562;2022-12-16T17:28:57;3.10;59.70
12426;DHT22;6277;49.824;9.562;2022-12-16T17:31:41;3.00;59.60
12426;DHT22;6277;49.824;9.562;2022-12-16T17:34:25;3.00;60.00
12426;DHT22;6277;49.824;9.562;2022-12-16T17:37:09;3.00;59.40
12426;DHT22;6277;49.824;9.562;2022-12-16T17:39:53;2.90;59.30
12426;DHT22;6277;49.824;9.562;2022-12-16T17:42:38;2.80;59.20
12426;DHT22;6277;49.824;9.562;2022-12-16T17:45:22;2.70;59.10
12426;DHT22;6277;49.824;9.562;2022-12-16T17:48:06;2.70;59.10
12426;DHT22;6277;49.824;9.562;2022-12-16T17:50:50;2.50;59.00
12426;DHT22;6277;49.824;9.562;2022-12-16T17:53:34;2.40;59.00
12426;DHT22;6277;49.824;9.562;2022-12-16T17:56:19;2.30;58.90
12426;DHT22;6277;49.824;9.562;2022-12-16T17:59:03;2.20;58.90
12426;DHT22;6277;49.824;9.562;2022-12-16T18:01:47;2.10;58.90
12426;DHT22;6277;49.824;9.562;2022-12-16T18:04:31;1.90;58.80
12426;DHT22;6277;49.824;9.562;2022-12-16T18:07:15;1.70;58.80
12426;DHT22;6277;49.824;9.562;2022-12-16T18:09:59;1.60;58.80
12426;DHT22;6277;49.824;9.562;2022-12-16T18:12:43;1.40;58.90
12426;DHT22;6277;49.824;9.562;2022-12-16T18:15:27;1.30;59.00
12426;DHT22;6277;49.824;9.562;2022-12-16T18:18:11;1.10;58.90
12426;DHT22;6277;49.824;9.562;2022-12-16T18:20:55;1.00;59.00
12426;DHT22;6277;49.824;9.562;2022-12-16T18:23:41;0.90;59.00
12426;DHT22;6277;49.824;9.562;2022-12-16T18:26:25;0.80;59.10
12426;DHT22;6277;49.824;9.562;2022-12-16T18:29:09;0.60;59.00
12426;DHT22;6277;49.824;9.562;2022-12-16T18:31:54;0.50;59.10
12426;DHT22;6277;49.824;9.562;2022-12-16T18:34:38;0.30;59.10
12426;DHT22;6277;49.824;9.562;2022-12-16T18:37:22;0.20;59.20
12426;DHT22;6277;49.824;9.562;2022-12-16T18:40:07;0.00;59.30
12426;DHT22;6277;49.824;9.562;2022-12-16T18:42:51;-0.10;59.30
12426;DHT22;6277;49.824;9.562;2022-12-16T18:45:36;-0.20;59.40
12426;DHT22;6277;49.824;9.562;2022-12-16T18:48:20;-0.30;59.40
12426;DHT22;6277;49.824;9.562;2022-12-16T18:51:04;-0.50;59.30
12426;DHT22;6277;49.824;9.562;2022-12-16T18:53:49;-0.60;59.40
12426;DHT22;6277;49.824;9.562;2022-12-16T18:56:33;-0.70;59.60
12426;DHT22;6277;49.824;9.562;2022-12-16T18:59:18;-0.80;59.50
12426;DHT22;6277;49.824;9.562;2022-12-16T19:02:02;-0.90;59.60
12426;DHT22;6277;49.824;9.562;2022-12-16T19:04:46;-1.00;59.70
12426;DHT22;6277;49.824;9.562;2022-12-16T19:07:30;-1.10;59.70
12426;DHT22;6277;49.824;9.562;2022-12-16T19:10:14;-1.20;59.20
12426;DHT22;6277;49.824;9.562;2022-12-16T19:12:58;-1.30;59.70
12426;DHT22;6277;49.824;9.562;2022-12-16T19:15:52;-1.40;59.80